sensor_id;sensor_type;location;lat;lon;timestamp;temperature;humidity
28767;DHT22;15921;52.034;20.650;2023-07-13T00:02:24;18.30;99.90
28767;DHT22;15921;52.034;20.650;2023-07-13T00:04:50;18.30;99.90
28767;DHT22;15921;52.034;20.650;2023-07-13T00:07:16;18.30;99.90
28767;DHT22;15921;52.034;20.650;2023-07-13T00:09:46;18.30;99.90
28767;DHT22;15921;52.034;20.650;2023-07-13T00:14:51;18.30;99.90
28767;DHT22;15921;52.034;20.650;2023-07-13T00:17:17;18.20;99.90
28767;DHT22;15921;52.034;20.650;2023-07-13T00:19:43;18.20;99.90
28767;DHT22;15921;52.034;20.650;2023-07-13T00:22:08;18.30;99.90
28767;DHT22;15921;52.034;20.650;2023-07-13T00:24:34;18.30;99.90
28767;DHT22;15921;52.034;20.650;2023-07-13T00:27:01;18.30;99.90
28767;DHT22;15921;52.034;20.650;2023-07-13T00:29:27;18.30;99.90
28767;DHT22;15921;52.034;20.650;2023-07-13T00:31:52;18.30;99.90
28767;DHT22;15921;52.034;20.650;2023-07-13T00:34:18;18.30;99.90
28767;DHT22;15921;52.034;20.650;2023-07-13T00:36:44;18.30;99.90
28767;DHT22;15921;52.034;20.650;2023-07-13T00:39:10;18.20;99.90
28767;DHT22;15921;52.034;20.650;2023-07-13T00:41:35;18.30;99.90
28767;DHT22;15921;52.034;20.650;2023-07-13T00:44:02;18.30;99.90
28767;DHT22;15921;52.034;20.650;2023-07-13T00:46:30;18.30;99.90
28767;DHT22;15921;52.034;20.650;2023-07-13T00:49:02;18.30;99.90
28767;DHT22;15921;52.034;20.650;2023-07-13T00:51:45;18.30;99.90
28767;DHT22;15921;52.034;20.650;2023-07-13T00:54:19;18.20;99.90
28767;DHT22;15921;52.034;20.650;2023-07-13T00:56:48;18.10;99.90
28767;DHT22;15921;52.034;20.650;2023-07-13T00:59:16;18.10;99.90
28767;DHT22;15921;52.034;20.650;2023-07-13T01:01:43;18.10;99.90
28767;DHT22;15921;52.034;20.650;2023-07-13T01:04:09;18.10;99.90
28767;DHT22;15921;52.034;20.650;2023-07-13T01:06:37;18.00;99.90
28767;DHT22;15921;52.034;20.650;2023-07-13T01:09:04;18.00;99.90
28767;DHT22;15921;52.034;20.650;2023-07-13T01:11:30;18.00;99.90
28767;DHT22;15921;52.034;20.650;2023-07-13T01:13:55;18.00;99.90
28767;DHT22;15921;52.034;20.650;2023-07-13T01:16:25;18.00;99.90
28767;DHT22;15921;52.034;20.650;2023-07-13T01:18:52;18.00;99.90
28767;DHT22;15921;52.034;20.650;2023-07-13T01:21:17;18.10;99.90
28767;DHT22;15921;52.034;20.650;2023-07-13T01:23:44;18.10;99.90
28767;DHT22;15921;52.034;20.650;2023-07-13T01:26:10;18.10;99.90
28767;DHT22;15921;52.034;20.650;2023-07-13T01:28:37;18.10;99.90
28767;DHT22;15921;52.034;20.650;2023-07-13T01:31:03;18.10;99.90
28767;DHT22;15921;52.034;20.650;2023-07-13T01:33:29;18.10;99.90
28767;DHT22;15921;52.034;20.650;2023-07-13T01:35:55;18.10;99.90
28767;DHT22;15921;52.034;20.650;2023-07-13T01:38:24;18.10;99.90
28767;DHT22;15921;52.034;20.650;2023-07-13T01:40:53;18.10;99.90
28767;DHT22;15921;52.034;20.650;2023-07-13T01:43:19;18.10;99.90
28767;DHT22;15921;52.034;20.650;2023-07-13T01:45:45;18.10;99.90
28767;DHT22;15921;52.034;20.650;2023-07-13T01:48:11;18.10;99.90
28767;DHT22;15921;52.034;20.650;2023-07-13T01:50:37;18.10;99.90
28767;DHT22;15921;52.034;20.650;2023-07-13T01:53:04;18.10;99.90
28767;DHT22;15921;52.034;20.650;2023-07-13T01:55:30;18.10;99.90
28767;DHT22;15921;52.034;20.650;2023-07-13T01:57:56;18.10;99.90
28767;DHT22;15921;52.034;20.650;2023-07-13T02:00:22;18.00;99.90
28767;DHT22;15921;52.034;20.650;2023-07-13T02:02:48;18.00;99.90
28767;DHT22;15921;52.034;20.650;2023-07-13T02:05:14;18.00;99.90
28767;DHT22;15921;52.034;20.650;2023-07-13T02:07:40;17.90;99.90
28767;DHT22;15921;52.034;20.650;2023-07-13T02:10:07;18.00;99.90
28767;DHT22;15921;52.034;20.650;2023-07-13T02:12:33;17.90;99.90
28767;DHT22;15921;52.034;20.650;2023-07-13T02:14:59;17.90;99.90
28767;DHT22;15921;52.034;20.650;2023-07-13T02:17:26;17.90;99.90
28767;DHT22;15921;52.034;20.650;2023-07-13T02:19:52;17.90;99.90
28767;DHT22;15921;52.034;20.650;2023-07-13T02:22:17;17.90;99.90
28767;DHT22;15921;52.034;20.650;2023-07-13T02:24:43;17.80;99.90
28767;DHT22;15921;52.034;20.650;2023-07-13T02:27:09;17.90;99.90
28767;DHT22;15921;52.034;20.650;2023-07-13T02:29:35;17.80;99.90
28767;DHT22;15921;52.034;20.650;2023-07-13T02:32:00;17.90;99.90
28767;DHT22;15921;52.034;20.650;2023-07-13T02:34:26;17.80;99.90
28767;DHT22;15921;52.034;20.650;2023-07-13T02:36:52;17.80;99.90
28767;DHT22;15921;52.034;20.650;2023-07-13T02:39:17;17.80;99.90
28767;DHT22;15921;52.034;20.650;2023-07-13T02:41:43;17.80;99.90
28767;DHT22;15921;52.034;20.650;2023-07-13T02:44:09;17.80;99.90
28767;DHT22;15921;52.034;20.650;2023-07-13T02:46:36;17.80;99.90
28767;DHT22;15921;52.034;20.650;2023-07-13T02:49:03;17.80;99.90
28767;DHT22;15921;52.034;20.650;2023-07-13T02:51:29;17.70;99.90
28767;DHT22;15921;52.034;20.650;2023-07-13T02:53:56;17.70;99.90
28767;DHT22;15921;52.034;20.650;2023-07-13T02:56:26;17.70;99.90
28767;DHT22;15921;52.034;20.650;2023-07-13T02:58:53;17.70;99.90
28767;DHT22;15921;52.034;20.650;2023-07-13T03:01:19;17.70;99.90
28767;DHT22;15921;52.034;20.650;2023-07-13T03:03:46;17.60;99.90
28767;DHT22;15921;52.034;20.650;2023-07-13T03:06:12;17.60;99.90
28767;DHT22;15921;52.034;20.650;2023-07-13T03:08:38;17.50;99.90
28767;DHT22;15921;52.034;20.650;2023-07-13T03:11:14;17.50;99.90
28767;DHT22;15921;52.034;20.650;2023-07-13T03:13:41;17.50;99.90
28767;DHT22;15921;52.034;20.650;2023-07-13T03:16:08;17.60;99.90
28767;DHT22;15921;52.034;20.650;2023-07-13T03:18:36;17.50;99.90
28767;DHT22;15921;52.034;20.650;2023-07-13T03:21:02;17.50;99.90
28767;DHT22;15921;52.034;20.650;2023-07-13T03:23:27;17.50;99.90
28767;DHT22;15921;52.034;20.650;2023-07-13T03:26:14;17.50;99.90
28767;DHT22;15921;52.034;20.650;2023-07-13T03:28:40;17.60;99.90
28767;DHT22;15921;52.034;20.650;2023-07-13T03:31:11;17.60;99.90
28767;DHT22;15921;52.034;20.650;2023-07-13T03:33:37;17.60;99.90
28767;DHT22;15921;52.034;20.650;2023-07-13T03:36:05;17.70;99.90
28767;DHT22;15921;52.034;20.650;2023-07-13T03:38:31;17.80;99.90
28767;DHT22;15921;52.034;20.650;2023-07-13T03:40:57;17.80;99.90
28767;DHT22;15921;52.034;20.650;2023-07-13T03:43:23;17.80;99.90
28767;DHT22;15921;52.034;20.650;2023-07-13T03:45:48;17.90;99.90
28767;DHT22;15921;52.034;20.650;2023-07-13T03:48:14;17.90;99.90
28767;DHT22;15921;52.034;20.650;2023-07-13T03:50:40;18.00;99.90
28767;DHT22;15921;52.034;20.650;2023-07-13T03:53:06;18.10;99.90
28767;DHT22;15921;52.034;20.650;2023-07-13T03:55:32;18.30;99.90
28767;DHT22;15921;52.034;20.650;2023-07-13T03:58:00;18.40;99.90
28767;DHT22;15921;52.034;20.650;2023-07-13T04:00:26;18.50;99.90
28767;DHT22;15921;52.034;20.650;2023-07-13T04:02:52;18.70;99.90
28767;DHT22;15921;52.034;20.650;2023-07-13T04:05:18;18.90;99.90
28767;DHT22;15921;52.034;20.650;2023-07-13T04:07:44;19.10;99.90
28767;DHT22;15921;52.034;20.650;2023-07-13T04:10:10;19.30;99.90
28767;DHT22;15921;52.034;20.650;2023-07-13T04:12:35;19.40;99.90
28767;DHT22;15921;52.034;20.650;2023-07-13T04:15:01;19.50;99.90
28767;DHT22;15921;52.034;20.650;2023-07-13T04:17:27;19.60;99.90
28767;DHT22;15921;52.034;20.650;2023-07-13T04:19:52;19.80;99.90
28767;DHT22;15921;52.034;20.650;2023-07-13T04:22:18;19.90;99.90
28767;DHT22;15921;52.034;20.650;2023-07-13T04:24:44;20.00;99.90
28767;DHT22;15921;52.034;20.650;2023-07-13T04:27:09;20.10;99.90
28767;DHT22;15921;52.034;20.650;2023-07-13T04:29:35;20.10;99.90
28767;DHT22;15921;52.034;20.650;2023-07-13T04:32:01;20.10;99.90
28767;DHT22;15921;52.034;20.650;2023-07-13T04:34:26;20.20;99.90
28767;DHT22;15921;52.034;20.650;2023-07-13T04:36:52;20.20;99.90
28767;DHT22;15921;52.034;20.650;2023-07-13T04:39:18;20.30;99.90
28767;DHT22;15921;52.034;20.650;2023-07-13T04:41:44;20.40;99.90
28767;DHT22;15921;52.034;20.650;2023-07-13T04:44:09;20.50;99.90
28767;DHT22;15921;52.034;20.650;2023-07-13T04:46:35;20.60;99.90
28767;DHT22;15921;52.034;20.650;2023-07-13T04:49:01;20.70;99.90
28767;DHT22;15921;52.034;20.650;2023-07-13T04:51:29;20.80;99.90
28767;DHT22;15921;52.034;20.650;2023-07-13T04:53:55;20.90;99.90
28767;DHT22;15921;52.034;20.650;2023-07-13T04:56:20;21.00;99.90
28767;DHT22;15921;52.034;20.650;2023-07-13T04:58:46;21.10;99.90
28767;DHT22;15921;52.034;20.650;2023-07-13T05:01:12;21.20;99.90
28767;DHT22;15921;52.034;20.650;2023-07-13T05:03:39;21.20;99.90
28767;DHT22;15921;52.034;20.650;2023-07-13T05:06:06;21.20;99.90
28767;DHT22;15921;52.034;20.650;2023-07-13T05:08:32;21.30;99.90
28767;DHT22;15921;52.034;20.650;2023-07-13T05:11:02;21.50;99.90
28767;DHT22;15921;52.034;20.650;2023-07-13T05:13:28;21.60;99.90
28767;DHT22;15921;52.034;20.650;2023-07-13T05:16:02;21.70;99.90
28767;DHT22;15921;52.034;20.650;2023-07-13T05:18:29;21.80;99.90
28767;DHT22;15921;52.034;20.650;2023-07-13T05:21:09;22.00;99.90
28767;DHT22;15921;52.034;20.650;2023-07-13T05:23:36;22.20;99.90
28767;DHT22;15921;52.034;20.650;2023-07-13T05:26:02;22.30;99.90
28767;DHT22;15921;52.034;20.650;2023-07-13T05:28:29;22.50;99.90
28767;DHT22;15921;52.034;20.650;2023-07-13T05:30:55;22.60;99.90
28767;DHT22;15921;52.034;20.650;2023-07-13T05:33:21;22.60;99.90
28767;DHT22;15921;52.034;20.650;2023-07-13T05:35:47;22.60;99.90
28767;DHT22;15921;52.034;20.650;2023-07-13T05:38:13;22.70;99.90
28767;DHT22;15921;52.034;20.650;2023-07-13T05:40:38;22.80;99.90
28767;DHT22;15921;52.034;20.650;2023-07-13T05:43:04;22.90;99.90
28767;DHT22;15921;52.034;20.650;2023-07-13T05:45:30;23.00;99.90
28767;DHT22;15921;52.034;20.650;2023-07-13T05:47:55;23.10;99.90
28767;DHT22;15921;52.034;20.650;2023-07-13T05:50:21;23.20;99.90
28767;DHT22;15921;52.034;20.650;2023-07-13T05:52:47;23.30;99.90
28767;DHT22;15921;52.034;20.650;2023-07-13T05:55:13;23.50;99.90
28767;DHT22;15921;52.034;20.650;2023-07-13T05:57:39;23.70;99.90
28767;DHT22;15921;52.034;20.650;2023-07-13T06:00:05;23.80;99.90
28767;DHT22;15921;52.034;20.650;2023-07-13T06:02:31;23.90;99.90
28767;DHT22;15921;52.034;20.650;2023-07-13T06:04:56;23.90;99.90
28767;DHT22;15921;52.034;20.650;2023-07-13T06:07:22;24.00;99.90
28767;DHT22;15921;52.034;20.650;2023-07-13T06:09:48;24.10;99.90
28767;DHT22;15921;52.034;20.650;2023-07-13T06:12:13;24.10;99.90
28767;DHT22;15921;52.034;20.650;2023-07-13T06:14:39;24.10;99.90
28767;DHT22;15921;52.034;20.650;2023-07-13T06:17:05;24.00;99.90
28767;DHT22;15921;52.034;20.650;2023-07-13T06:19:31;23.80;99.90
28767;DHT22;15921;52.034;20.650;2023-07-13T06:21:57;23.70;99.90
28767;DHT22;15921;52.034;20.650;2023-07-13T06:24:24;23.60;99.90
28767;DHT22;15921;52.034;20.650;2023-07-13T06:26:50;23.60;99.90
28767;DHT22;15921;52.034;20.650;2023-07-13T06:29:16;23.70;99.90
28767;DHT22;15921;52.034;20.650;2023-07-13T06:31:42;23.80;99.90
28767;DHT22;15921;52.034;20.650;2023-07-13T06:34:08;24.00;99.90
28767;DHT22;15921;52.034;20.650;2023-07-13T06:36:33;24.10;99.90
28767;DHT22;15921;52.034;20.650;2023-07-13T06:38:59;24.30;99.90
28767;DHT22;15921;52.034;20.650;2023-07-13T06:41:25;24.40;99.90
28767;DHT22;15921;52.034;20.650;2023-07-13T06:43:54;24.50;99.90
28767;DHT22;15921;52.034;20.650;2023-07-13T06:46:23;24.60;99.90
28767;DHT22;15921;52.034;20.650;2023-07-13T06:48:48;24.70;99.90
28767;DHT22;15921;52.034;20.650;2023-07-13T06:51:14;24.90;99.90
28767;DHT22;15921;52.034;20.650;2023-07-13T06:53:41;25.00;99.90
28767;DHT22;15921;52.034;20.650;2023-07-13T06:56:09;25.10;99.90
28767;DHT22;15921;52.034;20.650;2023-07-13T06:58:36;25.30;99.90
28767;DHT22;15921;52.034;20.650;2023-07-13T07:01:02;25.30;99.90
28767;DHT22;15921;52.034;20.650;2023-07-13T07:03:28;25.40;99.90
28767;DHT22;15921;52.034;20.650;2023-07-13T07:05:59;25.30;99.90
28767;DHT22;15921;52.034;20.650;2023-07-13T07:08:25;25.50;99.90
28767;DHT22;15921;52.034;20.650;2023-07-13T07:10:51;25.60;99.90
28767;DHT22;15921;52.034;20.650;2023-07-13T07:13:19;25.70;99.90
28767;DHT22;15921;52.034;20.650;2023-07-13T07:15:45;25.80;99.90
28767;DHT22;15921;52.034;20.650;2023-07-13T07:18:11;25.80;99.90
28767;DHT22;15921;52.034;20.650;2023-07-13T07:20:36;25.90;99.90
28767;DHT22;15921;52.034;20.650;2023-07-13T07:23:03;25.70;99.90
28767;DHT22;15921;52.034;20.650;2023-07-13T07:25:28;25.70;99.90
28767;DHT22;15921;52.034;20.650;2023-07-13T07:27:57;25.70;99.90
28767;DHT22;15921;52.034;20.650;2023-07-13T07:30:24;25.60;99.90
28767;DHT22;15921;52.034;20.650;2023-07-13T07:32:50;25.60;99.90
28767;DHT22;15921;52.034;20.650;2023-07-13T07:35:15;25.70;99.90
28767;DHT22;15921;52.034;20.650;2023-07-13T07:37:41;25.80;99.90
28767;DHT22;15921;52.034;20.650;2023-07-13T07:40:08;25.80;99.90
28767;DHT22;15921;52.034;20.650;2023-07-13T07:42:34;25.90;99.90
28767;DHT22;15921;52.034;20.650;2023-07-13T07:44:59;25.90;99.90
28767;DHT22;15921;52.034;20.650;2023-07-13T07:47:26;26.00;99.90
28767;DHT22;15921;52.034;20.650;2023-07-13T07:49:52;26.20;99.90
28767;DHT22;15921;52.034;20.650;2023-07-13T07:52:18;26.30;99.90
28767;DHT22;15921;52.034;20.650;2023-07-13T07:54:44;26.40;99.90
28767;DHT22;15921;52.034;20.650;2023-07-13T07:57:10;26.50;99.90
28767;DHT22;15921;52.034;20.650;2023-07-13T07:59:36;26.70;99.90
28767;DHT22;15921;52.034;20.650;2023-07-13T08:02:03;26.90;99.90
28767;DHT22;15921;52.034;20.650;2023-07-13T08:04:29;27.10;99.90
28767;DHT22;15921;52.034;20.650;2023-07-13T08:06:54;27.20;99.90
28767;DHT22;15921;52.034;20.650;2023-07-13T08:09:21;27.40;99.90
28767;DHT22;15921;52.034;20.650;2023-07-13T08:11:47;27.50;99.90
28767;DHT22;15921;52.034;20.650;2023-07-13T08:14:13;27.80;99.90
28767;DHT22;15921;52.034;20.650;2023-07-13T08:16:39;28.20;99.90
28767;DHT22;15921;52.034;20.650;2023-07-13T08:19:05;28.40;98.80
28767;DHT22;15921;52.034;20.650;2023-07-13T08:21:31;28.60;98.00
28767;DHT22;15921;52.034;20.650;2023-07-13T08:23:57;28.70;97.40
28767;DHT22;15921;52.034;20.650;2023-07-13T08:26:23;28.70;96.60
28767;DHT22;15921;52.034;20.650;2023-07-13T08:28:49;28.90;96.00
28767;DHT22;15921;52.034;20.650;2023-07-13T08:31:14;28.90;95.00
28767;DHT22;15921;52.034;20.650;2023-07-13T08:33:40;29.00;94.30
28767;DHT22;15921;52.034;20.650;2023-07-13T08:36:06;29.00;93.60
28767;DHT22;15921;52.034;20.650;2023-07-13T08:38:32;29.10;92.90
28767;DHT22;15921;52.034;20.650;2023-07-13T08:40:58;29.30;92.60
28767;DHT22;15921;52.034;20.650;2023-07-13T08:43:30;29.50;92.20
28767;DHT22;15921;52.034;20.650;2023-07-13T08:48:53;30.00;90.90
28767;DHT22;15921;52.034;20.650;2023-07-13T08:51:57;30.20;90.60
28767;DHT22;15921;52.034;20.650;2023-07-13T08:57:10;30.60;87.90
28767;DHT22;15921;52.034;20.650;2023-07-13T08:59:37;30.50;87.90
28767;DHT22;15921;52.034;20.650;2023-07-13T09:10:27;29.90;85.60
28767;DHT22;15921;52.034;20.650;2023-07-13T09:18:40;30.30;83.60
28767;DHT22;15921;52.034;20.650;2023-07-13T09:21:16;30.50;82.20
28767;DHT22;15921;52.034;20.650;2023-07-13T09:23:42;30.60;82.10
28767;DHT22;15921;52.034;20.650;2023-07-13T09:26:14;30.60;82.10
28767;DHT22;15921;52.034;20.650;2023-07-13T09:28:44;30.70;81.50
28767;DHT22;15921;52.034;20.650;2023-07-13T09:31:20;30.80;81.10
28767;DHT22;15921;52.034;20.650;2023-07-13T09:33:49;31.10;80.50
28767;DHT22;15921;52.034;20.650;2023-07-13T09:36:28;31.30;80.50
28767;DHT22;15921;52.034;20.650;2023-07-13T09:42:01;31.90;77.70
28767;DHT22;15921;52.034;20.650;2023-07-13T09:44:36;32.10;77.10
28767;DHT22;15921;52.034;20.650;2023-07-13T09:47:02;32.10;76.40
28767;DHT22;15921;52.034;20.650;2023-07-13T09:49:36;32.10;76.60
28767;DHT22;15921;52.034;20.650;2023-07-13T09:52:05;31.80;76.00
28767;DHT22;15921;52.034;20.650;2023-07-13T09:54:34;31.50;76.50
28767;DHT22;15921;52.034;20.650;2023-07-13T09:57:01;30.90;77.70
28767;DHT22;15921;52.034;20.650;2023-07-13T09:59:35;30.40;78.70
28767;DHT22;15921;52.034;20.650;2023-07-13T10:02:02;30.00;79.30
28767;DHT22;15921;52.034;20.650;2023-07-13T10:04:33;29.50;81.30
28767;DHT22;15921;52.034;20.650;2023-07-13T10:07:12;29.00;83.40
28767;DHT22;15921;52.034;20.650;2023-07-13T10:09:38;28.70;85.30
28767;DHT22;15921;52.034;20.650;2023-07-13T10:12:14;28.40;85.60
28767;DHT22;15921;52.034;20.650;2023-07-13T10:14:41;28.40;86.80
28767;DHT22;15921;52.034;20.650;2023-07-13T10:17:12;28.50;86.60
28767;DHT22;15921;52.034;20.650;2023-07-13T10:19:41;28.80;85.90
28767;DHT22;15921;52.034;20.650;2023-07-13T10:25:20;29.50;84.80
28767;DHT22;15921;52.034;20.650;2023-07-13T10:27:50;30.00;81.30
28767;DHT22;15921;52.034;20.650;2023-07-13T10:30:24;30.10;81.50
28767;DHT22;15921;52.034;20.650;2023-07-13T10:32:59;30.20;80.60
28767;DHT22;15921;52.034;20.650;2023-07-13T10:35:26;30.30;80.50
28767;DHT22;15921;52.034;20.650;2023-07-13T10:38:11;30.40;79.70
28767;DHT22;15921;52.034;20.650;2023-07-13T10:41:07;30.30;78.70
28767;DHT22;15921;52.034;20.650;2023-07-13T10:43:39;29.90;78.90
28767;DHT22;15921;52.034;20.650;2023-07-13T10:46:09;29.90;80.20
28767;DHT22;15921;52.034;20.650;2023-07-13T10:48:37;29.80;79.50
28767;DHT22;15921;52.034;20.650;2023-07-13T10:51:05;29.70;79.70
28767;DHT22;15921;52.034;20.650;2023-07-13T10:53:37;29.50;79.40
28767;DHT22;15921;52.034;20.650;2023-07-13T10:56:50;29.10;81.30
28767;DHT22;15921;52.034;20.650;2023-07-13T10:59:04;28.60;79.70
28767;DHT22;15921;52.034;20.650;2023-07-13T11:04:14;26.90;80.10
28767;DHT22;15921;52.034;20.650;2023-07-13T11:06:42;26.20;82.30
28767;DHT22;15921;52.034;20.650;2023-07-13T11:12:02;25.20;84.00
28767;DHT22;15921;52.034;20.650;2023-07-13T11:15:26;24.90;86.10
28767;DHT22;15921;52.034;20.650;2023-07-13T11:20:22;24.50;85.30
28767;DHT22;15921;52.034;20.650;2023-07-13T11:25:42;23.60;89.20
28767;DHT22;15921;52.034;20.650;2023-07-13T11:30:39;23.10;91.20
28767;DHT22;15921;52.034;20.650;2023-07-13T11:33:27;22.80;93.70
28767;DHT22;15921;52.034;20.650;2023-07-13T11:38:30;22.50;99.60
28767;DHT22;15921;52.034;20.650;2023-07-13T11:41:00;22.40;99.90
28767;DHT22;15921;52.034;20.650;2023-07-13T11:43:29;22.20;99.90
28767;DHT22;15921;52.034;20.650;2023-07-13T11:45:55;22.20;99.90
28767;DHT22;15921;52.034;20.650;2023-07-13T11:48:23;22.40;99.90
28767;DHT22;15921;52.034;20.650;2023-07-13T11:51:02;22.70;99.90
28767;DHT22;15921;52.034;20.650;2023-07-13T11:53:35;23.10;99.90
28767;DHT22;15921;52.034;20.650;2023-07-13T11:56:03;23.40;99.90
28767;DHT22;15921;52.034;20.650;2023-07-13T11:58:29;23.80;99.90
28767;DHT22;15921;52.034;20.650;2023-07-13T12:00:58;24.10;99.90
28767;DHT22;15921;52.034;20.650;2023-07-13T12:03:25;24.50;99.90
28767;DHT22;15921;52.034;20.650;2023-07-13T12:06:03;24.70;99.90
28767;DHT22;15921;52.034;20.650;2023-07-13T12:08:31;24.80;99.90
28767;DHT22;15921;52.034;20.650;2023-07-13T12:11:06;24.90;99.90
28767;DHT22;15921;52.034;20.650;2023-07-13T12:13:37;24.80;99.90
28767;DHT22;15921;52.034;20.650;2023-07-13T12:16:14;24.80;99.80
28767;DHT22;15921;52.034;20.650;2023-07-13T12:18:43;24.90;99.40
28767;DHT22;15921;52.034;20.650;2023-07-13T12:21:13;25.00;98.80
28767;DHT22;15921;52.034;20.650;2023-07-13T12:23:39;25.30;98.40
28767;DHT22;15921;52.034;20.650;2023-07-13T12:26:09;25.50;97.50
28767;DHT22;15921;52.034;20.650;2023-07-13T12:31:40;25.90;97.10
28767;DHT22;15921;52.034;20.650;2023-07-13T12:34:13;26.00;97.50
28767;DHT22;15921;52.034;20.650;2023-07-13T12:37:00;25.90;97.60
28767;DHT22;15921;52.034;20.650;2023-07-13T12:39:35;25.60;97.20
28767;DHT22;15921;52.034;20.650;2023-07-13T12:42:32;25.40;97.60
28767;DHT22;15921;52.034;20.650;2023-07-13T12:45:05;25.20;98.20
28767;DHT22;15921;52.034;20.650;2023-07-13T12:47:42;25.00;98.50
28767;DHT22;15921;52.034;20.650;2023-07-13T12:50:17;24.90;99.10
28767;DHT22;15921;52.034;20.650;2023-07-13T12:52:44;24.80;99.20
28767;DHT22;15921;52.034;20.650;2023-07-13T12:55:18;24.70;99.30
28767;DHT22;15921;52.034;20.650;2023-07-13T12:57:55;24.70;99.80
28767;DHT22;15921;52.034;20.650;2023-07-13T13:00:29;24.70;99.90
28767;DHT22;15921;52.034;20.650;2023-07-13T13:03:01;24.60;99.90
28767;DHT22;15921;52.034;20.650;2023-07-13T13:05:30;24.50;99.90
28767;DHT22;15921;52.034;20.650;2023-07-13T13:07:56;24.50;99.90
28767;DHT22;15921;52.034;20.650;2023-07-13T13:10:21;24.50;99.90
28767;DHT22;15921;52.034;20.650;2023-07-13T13:12:47;24.50;99.90
28767;DHT22;15921;52.034;20.650;2023-07-13T13:15:13;24.50;99.90
28767;DHT22;15921;52.034;20.650;2023-07-13T13:17:39;24.50;99.90
28767;DHT22;15921;52.034;20.650;2023-07-13T13:20:19;24.40;99.90
28767;DHT22;15921;52.034;20.650;2023-07-13T13:22:45;24.40;99.90
28767;DHT22;15921;52.034;20.650;2023-07-13T13:25:12;24.40;99.90
28767;DHT22;15921;52.034;20.650;2023-07-13T13:27:40;24.40;99.90
28767;DHT22;15921;52.034;20.650;2023-07-13T13:30:13;24.40;99.90
28767;DHT22;15921;52.034;20.650;2023-07-13T13:32:41;24.40;99.90
28767;DHT22;15921;52.034;20.650;2023-07-13T13:35:25;24.30;99.90
28767;DHT22;15921;52.034;20.650;2023-07-13T13:37:52;24.30;99.90
28767;DHT22;15921;52.034;20.650;2023-07-13T13:40:21;24.20;99.90
28767;DHT22;15921;52.034;20.650;2023-07-13T13:42:48;24.10;99.90
28767;DHT22;15921;52.034;20.650;2023-07-13T13:45:14;24.10;99.90
28767;DHT22;15921;52.034;20.650;2023-07-13T13:47:44;24.10;99.90
28767;DHT22;15921;52.034;20.650;2023-07-13T13:50:20;24.10;99.90
28767;DHT22;15921;52.034;20.650;2023-07-13T13:52:50;24.20;99.90
28767;DHT22;15921;52.034;20.650;2023-07-13T13:55:19;24.30;99.90
28767;DHT22;15921;52.034;20.650;2023-07-13T13:57:46;24.30;99.90
28767;DHT22;15921;52.034;20.650;2023-07-13T14:00:12;24.30;99.90
28767;DHT22;15921;52.034;20.650;2023-07-13T14:02:40;24.30;99.90
28767;DHT22;15921;52.034;20.650;2023-07-13T14:05:10;24.30;99.90
28767;DHT22;15921;52.034;20.650;2023-07-13T14:07:37;24.30;99.90
28767;DHT22;15921;52.034;20.650;2023-07-13T14:10:14;24.30;99.90
28767;DHT22;15921;52.034;20.650;2023-07-13T14:12:42;24.40;99.90
28767;DHT22;15921;52.034;20.650;2023-07-13T14:15:36;24.40;99.90
28767;DHT22;15921;52.034;20.650;2023-07-13T14:18:01;24.50;99.90
28767;DHT22;15921;52.034;20.650;2023-07-13T14:20:27;24.50;99.90
28767;DHT22;15921;52.034;20.650;2023-07-13T14:22:55;24.60;99.90
28767;DHT22;15921;52.034;20.650;2023-07-13T14:25:21;24.70;99.90
28767;DHT22;15921;52.034;20.650;2023-07-13T14:27:49;24.60;99.90
28767;DHT22;15921;52.034;20.650;2023-07-13T14:30:20;24.50;99.90
28767;DHT22;15921;52.034;20.650;2023-07-13T14:32:46;24.30;99.90
28767;DHT22;15921;52.034;20.650;2023-07-13T14:35:17;24.30;99.90
28767;DHT22;15921;52.034;20.650;2023-07-13T14:37:44;24.30;99.90
28767;DHT22;15921;52.034;20.650;2023-07-13T14:40:13;24.20;99.90
28767;DHT22;15921;52.034;20.650;2023-07-13T14:42:39;24.10;99.90
28767;DHT22;15921;52.034;20.650;2023-07-13T14:45:05;24.00;99.90
28767;DHT22;15921;52.034;20.650;2023-07-13T14:47:31;24.00;99.90
28767;DHT22;15921;52.034;20.650;2023-07-13T14:49:57;23.90;99.90
28767;DHT22;15921;52.034;20.650;2023-07-13T14:52:23;23.80;99.90
28767;DHT22;15921;52.034;20.650;2023-07-13T14:54:50;23.80;99.90
28767;DHT22;15921;52.034;20.650;2023-07-13T14:57:17;23.70;99.90
28767;DHT22;15921;52.034;20.650;2023-07-13T14:59:44;23.60;99.90
28767;DHT22;15921;52.034;20.650;2023-07-13T15:04:42;23.40;99.90
28767;DHT22;15921;52.034;20.650;2023-07-13T15:07:10;23.20;99.90
28767;DHT22;15921;52.034;20.650;2023-07-13T15:09:36;23.20;99.90
28767;DHT22;15921;52.034;20.650;2023-07-13T15:12:02;23.20;99.90
28767;DHT22;15921;52.034;20.650;2023-07-13T15:14:28;23.20;99.90
28767;DHT22;15921;52.034;20.650;2023-07-13T15:16:55;23.20;99.90
28767;DHT22;15921;52.034;20.650;2023-07-13T15:19:21;23.10;99.90
28767;DHT22;15921;52.034;20.650;2023-07-13T15:21:49;23.10;99.90
28767;DHT22;15921;52.034;20.650;2023-07-13T15:24:15;23.00;99.90
28767;DHT22;15921;52.034;20.650;2023-07-13T15:26:42;23.00;99.90
28767;DHT22;15921;52.034;20.650;2023-07-13T15:29:11;23.00;99.90
28767;DHT22;15921;52.034;20.650;2023-07-13T15:31:37;23.00;99.90
28767;DHT22;15921;52.034;20.650;2023-07-13T15:34:11;23.00;99.90
28767;DHT22;15921;52.034;20.650;2023-07-13T15:36:36;23.10;99.90
28767;DHT22;15921;52.034;20.650;2023-07-13T15:39:02;23.10;99.90
28767;DHT22;15921;52.034;20.650;2023-07-13T15:41:28;23.20;99.90
28767;DHT22;15921;52.034;20.650;2023-07-13T15:43:58;23.30;99.90
28767;DHT22;15921;52.034;20.650;2023-07-13T15:46:25;23.40;99.90
28767;DHT22;15921;52.034;20.650;2023-07-13T15:48:53;23.50;99.90
28767;DHT22;15921;52.034;20.650;2023-07-13T15:51:26;23.50;99.90
28767;DHT22;15921;52.034;20.650;2023-07-13T15:53:58;23.60;99.90
28767;DHT22;15921;52.034;20.650;2023-07-13T15:56:26;23.60;99.90
28767;DHT22;15921;52.034;20.650;2023-07-13T15:58:53;23.60;99.90
28767;DHT22;15921;52.034;20.650;2023-07-13T16:01:19;23.60;99.90
28767;DHT22;15921;52.034;20.650;2023-07-13T16:03:46;23.50;99.90
28767;DHT22;15921;52.034;20.650;2023-07-13T16:06:22;23.50;99.90
28767;DHT22;15921;52.034;20.650;2023-07-13T16:08:49;23.50;99.90
28767;DHT22;15921;52.034;20.650;2023-07-13T16:11:27;23.40;99.90
28767;DHT22;15921;52.034;20.650;2023-07-13T16:13:53;23.30;99.90